Time;durP1;ratioP1;P1;durP2;ratioP2;P2;SDS_P1;SDS_P2;PMS_P1;PMS_P2;Temp;Humidity;BMP_temperature;BMP_pressure;BME280_temperature;BME280_humidity;BME280_pressure;Samples;Min_cycle;Max_cycle;Signal;HPM_P1;HPM_P2
2023/06/22 00:02:17;;;;;;;9.73;8.63;;;18.30;99.90;;;;;;5050885;28;20041;-59
2023/06/22 00:04:43;;;;;;;15.00;9.80;;;18.30;99.90;;;;;;5058017;28;20037;-61
2023/06/22 00:07:09;;;;;;;;;;;18.20;99.90;;;;;;5053480;28;20037;-60
2023/06/22 00:09:35;;;;;;;13.95;9.95;;;18.10;99.90;;;;;;5059384;28;20482;-57
2023/06/22 00:12:01;;;;;;;14.80;9.95;;;18.10;99.90;;;;;;5053605;28;20060;-57
2023/06/22 00:14:27;;;;;;;12.77;9.02;;;18.10;99.90;;;;;;5054813;28;20624;-57
2023/06/22 00:16:56;;;;;;;;;;;18.20;99.90;;;;;;5051175;28;20045;-58
2023/06/22 00:19:23;;;;;;;11.82;9.68;;;18.20;99.90;;;;;;5043059;28;19921;-58
2023/06/22 00:21:52;;;;;;;13.10;10.15;;;18.10;99.90;;;;;;5041436;28;20740;-59
2023/06/22 00:24:19;;;;;;;12.10;9.70;;;18.10;99.90;;;;;;5040460;28;20048;-57
2023/06/22 00:26:54;;;;;;;11.77;8.75;;;18.10;99.90;;;;;;5039873;28;20148;-59
2023/06/22 00:29:22;;;;;;;10.05;9.05;;;18.10;99.90;;;;;;5023695;28;20083;-58
2023/06/22 00:31:47;;;;;;;12.05;9.85;;;18.10;99.90;;;;;;5040937;28;20033;-60
2023/06/22 00:34:13;;;;;;;;;;;18.10;99.90;;;;;;5039822;28;20037;-55
2023/06/22 00:36:40;;;;;;;14.95;10.00;;;18.00;99.90;;;;;;5042433;28;19921;-59
2023/06/22 00:39:08;;;;;;;11.93;9.57;;;18.00;99.90;;;;;;5041231;28;20041;-58
2023/06/22 00:41:34;;;;;;;12.15;9.38;;;18.00;99.90;;;;;;5040607;28;20045;-58
2023/06/22 00:44:00;;;;;;;12.32;9.13;;;18.00;99.90;;;;;;5039527;28;20120;-59
2023/06/22 00:46:25;;;;;;;;;;;18.00;99.90;;;;;;5043857;28;20128;-52
2023/06/22 00:48:52;;;;;;;14.05;10.25;;;18.00;99.90;;;;;;5040937;28;19917;-59
2023/06/22 00:51:20;;;;;;;18.38;11.32;;;18.00;99.90;;;;;;5041767;28;20051;-57
2023/06/22 00:53:46;;;;;;;15.20;11.25;;;18.00;99.90;;;;;;5041089;28;20032;-62
2023/06/22 00:56:12;;;;;;;12.05;10.45;;;17.90;99.90;;;;;;5041896;28;20158;-60
2023/06/22 00:58:41;;;;;;;11.60;10.35;;;18.00;99.90;;;;;;5039608;28;20561;-57
2023/06/22 01:01:07;;;;;;;13.43;10.27;;;17.90;99.90;;;;;;5041537;28;20425;-56
2023/06/22 01:03:33;;;;;;;12.48;10.65;;;17.90;99.90;;;;;;5033840;28;20056;-59
2023/06/22 01:06:02;;;;;;;;;;;18.00;99.90;;;;;;5036472;28;20037;-55
2023/06/22 01:08:27;;;;;;;12.13;10.82;;;18.00;99.90;;;;;;5039590;28;19982;-60
2023/06/22 01:11:15;;;;;;;;;;;17.90;99.90;;;;;;5041369;28;20056;-60
2023/06/22 01:13:53;;;;;;;12.40;9.95;;;17.90;99.90;;;;;;5041590;28;19921;-56
2023/06/22 01:16:34;;;;;;;11.55;9.68;;;17.90;99.90;;;;;;5040019;28;20056;-57
2023/06/22 01:19:28;;;;;;;14.35;10.80;;;17.90;99.90;;;;;;5036672;28;20071;-60
2023/06/22 01:21:56;;;;;;;12.63;10.55;;;17.90;99.90;;;;;;5035710;28;20033;-60
2023/06/22 01:24:41;;;;;;;13.90;10.48;;;17.90;99.90;;;;;;5039524;28;20052;-59
2023/06/22 01:27:36;;;;;;;12.65;11.23;;;17.90;99.90;;;;;;5039819;28;20184;-59
2023/06/22 01:30:05;;;;;;;13.32;11.20;;;17.90;99.90;;;;;;5037738;28;20036;-54
2023/06/22 01:32:34;;;;;;;13.65;11.13;;;17.90;99.90;;;;;;5036726;28;20037;-56
2023/06/22 01:35:03;;;;;;;12.70;11.20;;;17.90;99.90;;;;;;5049622;28;20103;-52
2023/06/22 01:37:32;;;;;;;15.05;11.20;;;17.90;99.90;;;;;;5038224;28;20551;-60
2023/06/22 01:39:59;;;;;;;13.43;11.43;;;17.90;99.90;;;;;;5044624;28;20112;-59
2023/06/22 01:42:25;;;;;;;19.67;10.68;;;17.90;99.90;;;;;;5040936;28;20044;-59
2023/06/22 01:44:52;;;;;;;14.65;11.13;;;17.90;99.90;;;;;;5043483;28;20040;-60
2023/06/22 01:47:19;;;;;;;13.32;10.55;;;18.00;99.90;;;;;;5041265;28;20044;-59
2023/06/22 01:49:45;;;;;;;11.73;10.25;;;18.00;99.90;;;;;;5044990;28;20041;-60
2023/06/22 01:52:11;;;;;;;19.40;9.93;;;18.00;99.90;;;;;;5039367;28;20124;-59
2023/06/22 01:54:37;;;;;;;;;;;18.00;99.90;;;;;;5041166;28;20106;-59
2023/06/22 01:57:03;;;;;;;13.13;10.48;;;18.00;99.90;;;;;;5041554;28;19921;-60
2023/06/22 01:59:35;;;;;;;12.30;10.98;;;18.00;99.90;;;;;;5043161;28;20041;-58
2023/06/22 02:02:09;;;;;;;16.45;10.48;;;18.00;99.90;;;;;;5040276;28;20041;-59
2023/06/22 02:05:12;;;;;;;15.98;11.25;;;18.00;99.90;;;;;;5043501;28;20088;-60
2023/06/22 02:07:56;;;;;;;14.93;11.50;;;18.10;99.90;;;;;;5004897;28;20460;-61
2023/06/22 02:10:23;;;;;;;12.75;10.73;;;18.10;99.90;;;;;;5042361;28;20126;-60
2023/06/22 02:12:51;;;;;;;13.25;11.75;;;18.10;99.90;;;;;;5037811;28;20044;-58
2023/06/22 02:15:17;;;;;;;15.05;11.27;;;18.10;99.90;;;;;;5035510;28;20073;-59
2023/06/22 02:17:44;;;;;;;;;;;18.00;99.90;;;;;;5038403;28;20076;-59
2023/06/22 02:20:16;;;;;;;15.93;11.18;;;18.00;99.90;;;;;;5044580;28;19921;-59
2023/06/22 02:22:42;;;;;;;13.23;11.70;;;18.00;99.90;;;;;;5052265;28;20048;-59
2023/06/22 02:25:07;;;;;;;;;;;18.00;99.90;;;;;;5043801;28;20033;-61
2023/06/22 02:27:33;;;;;;;11.70;10.50;;;18.00;99.90;;;;;;5036475;28;20689;-55
2023/06/22 02:29:58;;;;;;;;;;;18.00;99.90;;;;;;5044041;28;20641;-55
2023/06/22 02:32:24;;;;;;;15.38;10.82;;;18.00;99.90;;;;;;5036094;28;20016;-58
2023/06/22 02:34:50;;;;;;;15.20;11.30;;;18.00;99.90;;;;;;5043843;28;20037;-60
2023/06/22 02:37:16;;;;;;;11.50;10.15;;;18.00;99.90;;;;;;5037633;28;20087;-59
2023/06/22 02:39:41;;;;;;;;;;;18.00;99.90;;;;;;5042780;28;20060;-55
2023/06/22 02:42:07;;;;;;;15.15;11.32;;;18.00;99.90;;;;;;5035908;28;19978;-58
2023/06/22 02:44:32;;;;;;;;;;;18.00;99.90;;;;;;5034698;28;20102;-57
2023/06/22 02:46:58;;;;;;;11.63;10.43;;;18.00;99.90;;;;;;5036294;28;19943;-55
2023/06/22 02:49:24;;;;;;;14.60;11.68;;;18.00;99.90;;;;;;5041662;28;20036;-60
2023/06/22 02:51:49;;;;;;;;;;;18.00;99.90;;;;;;5035674;28;20037;-56
2023/06/22 02:54:16;;;;;;;13.73;11.55;;;18.00;99.90;;;;;;5038249;28;19960;-58
2023/06/22 02:56:43;;;;;;;13.73;11.55;;;18.00;99.90;;;;;;5036791;28;20041;-60
2023/06/22 02:59:10;;;;;;;13.80;11.40;;;18.00;99.90;;;;;;5037407;28;20040;-57
2023/06/22 03:01:40;;;;;;;13.07;11.77;;;18.00;99.90;;;;;;5038635;28;20112;-59
2023/06/22 03:04:09;;;;;;;14.10;11.63;;;18.00;99.90;;;;;;5037792;28;20048;-60
2023/06/22 03:06:35;;;;;;;13.43;11.32;;;18.00;99.90;;;;;;5039355;28;20110;-60
2023/06/22 03:09:04;;;;;;;14.43;11.40;;;18.00;99.90;;;;;;5038467;28;20036;-60
2023/06/22 03:11:30;;;;;;;14.70;11.55;;;18.00;99.90;;;;;;5037790;28;20068;-60
2023/06/22 03:13:56;;;;;;;16.05;11.55;;;18.00;99.90;;;;;;5037740;28;20039;-58
2023/06/22 03:16:22;;;;;;;;;;;17.90;99.90;;;;;;5035047;28;20049;-56
2023/06/22 03:18:47;;;;;;;13.70;11.98;;;17.90;99.90;;;;;;5038557;28;20289;-57
2023/06/22 03:21:15;;;;;;;13.00;10.82;;;17.90;99.90;;;;;;5040521;28;20090;-56
2023/06/22 03:23:41;;;;;;;16.20;11.50;;;17.90;99.90;;;;;;5037707;28;20122;-58
2023/06/22 03:26:06;;;;;;;;;;;17.90;99.90;;;;;;5040829;28;20525;-57
2023/06/22 03:28:32;;;;;;;14.50;10.82;;;17.80;99.90;;;;;;5035905;28;20391;-60
2023/06/22 03:30:57;;;;;;;;;;;17.80;99.90;;;;;;5039974;28;20075;-59
2023/06/22 03:33:23;;;;;;;14.48;11.02;;;17.90;99.90;;;;;;5038271;28;19967;-60
2023/06/22 03:35:49;;;;;;;12.95;11.43;;;17.90;99.90;;;;;;5038138;28;20045;-59
2023/06/22 03:38:16;;;;;;;15.73;12.27;;;17.90;99.90;;;;;;5039951;28;20036;-60
2023/06/22 03:40:41;;;;;;;12.82;11.45;;;17.90;99.90;;;;;;5039826;28;20041;-60
2023/06/22 03:43:07;;;;;;;;;;;17.90;99.90;;;;;;5038706;28;20037;-59
2023/06/22 03:45:32;;;;;;;13.52;10.30;;;18.00;99.90;;;;;;5038863;28;19979;-59
2023/06/22 03:47:58;;;;;;;14.25;11.82;;;18.00;99.90;;;;;;5042208;28;20029;-61
2023/06/22 03:50:24;;;;;;;;;;;18.00;99.90;;;;;;5041574;28;20033;-57
2023/06/22 03:52:51;;;;;;;15.30;11.77;;;18.00;99.90;;;;;;5036307;28;19921;-60
2023/06/22 03:55:17;;;;;;;13.88;11.60;;;18.10;99.90;;;;;;5043941;28;20029;-59
2023/06/22 03:57:42;;;;;;;;;;;18.00;99.90;;;;;;5043142;28;20475;-58
2023/06/22 04:00:09;;;;;;;17.85;11.75;;;18.00;99.90;;;;;;5045434;28;19959;-59
2023/06/22 04:02:35;;;;;;;14.40;12.07;;;18.10;99.90;;;;;;5042406;28;20497;-61
2023/06/22 04:05:00;;;;;;;;;;;18.00;99.90;;;;;;5045375;28;20064;-58
2023/06/22 04:07:26;;;;;;;15.98;11.88;;;18.00;99.90;;;;;;5042714;28;20699;-60
2023/06/22 04:09:51;;;;;;;14.10;11.95;;;18.00;99.90;;;;;;5046168;28;20041;-59
2023/06/22 04:12:17;;;;;;;;;;;18.00;99.90;;;;;;5042094;28;20037;-58
2023/06/22 04:14:42;;;;;;;15.35;11.77;;;18.00;99.90;;;;;;5043849;28;19927;-59
2023/06/22 04:17:08;;;;;;;12.95;11.57;;;18.10;99.90;;;;;;5040646;28;20091;-55
2023/06/22 04:19:34;;;;;;;13.40;11.90;;;18.10;99.90;;;;;;5046239;28;20039;-59
2023/06/22 04:21:59;;;;;;;;;;;18.10;99.90;;;;;;5042635;28;20095;-59
2023/06/22 04:24:25;;;;;;;15.02;11.48;;;18.10;99.90;;;;;;5044428;28;19989;-57
2023/06/22 04:26:54;;;;;;;15.40;11.68;;;18.10;99.90;;;;;;5041041;28;20041;-60
2023/06/22 04:29:20;;;;;;;17.60;12.05;;;18.10;99.90;;;;;;5040088;28;20045;-59
2023/06/22 04:31:50;;;;;;;12.90;10.95;;;18.10;99.90;;;;;;5042319;28;20055;-58
2023/06/22 04:34:16;;;;;;;16.08;12.18;;;18.10;99.90;;;;;;5041473;28;20575;-59
2023/06/22 04:36:41;;;;;;;;;;;18.10;99.90;;;;;;5042862;28;20048;-60
2023/06/22 04:39:09;;;;;;;12.88;11.20;;;18.10;99.90;;;;;;5041543;28;19916;-60
2023/06/22 04:41:42;;;;;;;15.15;11.98;;;18.10;99.90;;;;;;5044105;28;20044;-61
2023/06/22 04:44:23;;;;;;;12.80;11.32;;;18.10;99.90;;;;;;5030360;28;21086;-59
2023/06/22 04:46:53;;;;;;;13.52;11.38;;;18.10;99.90;;;;;;5040636;28;20456;-60
2023/06/22 04:49:21;;;;;;;13.15;11.75;;;18.20;99.90;;;;;;5039120;28;20065;-61
2023/06/22 04:51:46;;;;;;;13.98;11.32;;;18.20;99.90;;;;;;5037825;28;20040;-55
2023/06/22 04:54:12;;;;;;;;;;;18.20;99.90;;;;;;5041354;28;20041;-59
2023/06/22 04:56:40;;;;;;;12.90;10.30;;;18.20;99.90;;;;;;5041681;28;20401;-56
2023/06/22 04:59:06;;;;;;;12.23;10.45;;;18.20;99.90;;;;;;5038854;28;20052;-60
2023/06/22 05:01:32;;;;;;;13.82;11.25;;;18.30;99.90;;;;;;5038326;28;20044;-59
2023/06/22 05:04:00;;;;;;;;;;;18.30;99.90;;;;;;5039521;28;20044;-60
2023/06/22 05:06:27;;;;;;;14.30;11.15;;;18.30;99.90;;;;;;5041376;28;19928;-57
2023/06/22 05:08:57;;;;;;;15.32;10.88;;;18.20;99.90;;;;;;5040261;28;20131;-59
2023/06/22 05:11:26;;;;;;;14.35;11.90;;;18.30;99.90;;;;;;5041506;28;20044;-57
2023/06/22 05:13:52;;;;;;;14.60;11.75;;;18.20;99.90;;;;;;5039382;28;20111;-59
2023/06/22 05:16:23;;;;;;;;;;;18.20;99.90;;;;;;5040214;28;20041;-58
2023/06/22 05:18:53;;;;;;;15.63;11.43;;;18.20;99.90;;;;;;5039534;28;19924;-59
2023/06/22 05:21:26;;;;;;;18.77;13.02;;;18.20;99.90;;;;;;5040126;28;20032;-58
2023/06/22 05:23:59;;;;;;;15.43;12.45;;;18.20;99.90;;;;;;5034256;28;20043;-59
2023/06/22 05:26:32;;;;;;;18.80;13.68;;;18.20;99.90;;;;;;5038833;28;20447;-60
2023/06/22 05:28:59;;;;;;;20.08;14.68;;;18.20;99.90;;;;;;5036444;28;20056;-60
2023/06/22 05:31:24;;;;;;;17.10;13.23;;;18.20;99.90;;;;;;5027127;28;20041;-58
2023/06/22 05:33:51;;;;;;;;;;;18.20;99.90;;;;;;5035365;28;20043;-60
2023/06/22 05:36:19;;;;;;;20.27;12.20;;;18.30;99.90;;;;;;5033250;28;19925;-56
2023/06/22 05:38:45;;;;;;;17.98;14.25;;;18.30;99.90;;;;;;5038015;28;20547;-59
2023/06/22 05:41:11;;;;;;;24.00;13.65;;;18.20;99.90;;;;;;5038413;28;20560;-62
2023/06/22 05:43:37;;;;;;;;;;;18.30;99.90;;;;;;5039324;28;20032;-57
2023/06/22 05:46:03;;;;;;;22.45;13.35;;;18.30;99.90;;;;;;5041211;28;19925;-62
2023/06/22 05:48:29;;;;;;;20.00;15.45;;;18.30;99.90;;;;;;5029057;28;20449;-59
2023/06/22 05:50:54;;;;;;;;;;;18.30;99.90;;;;;;5042334;28;20036;-61
2023/06/22 05:53:20;;;;;;;16.90;13.55;;;18.30;99.90;;;;;;5038584;28;20481;-60
2023/06/22 05:55:46;;;;;;;19.98;14.07;;;18.40;99.90;;;;;;5038945;28;20029;-63
2023/06/22 05:58:13;;;;;;;19.92;13.80;;;18.40;99.90;;;;;;5037198;28;20048;-63
2023/06/22 06:00:39;;;;;;;16.90;13.73;;;18.40;99.90;;;;;;5035430;28;20089;-61
2023/06/22 06:03:06;;;;;;;18.30;15.07;;;18.40;99.90;;;;;;5039010;28;20071;-59
2023/06/22 06:05:33;;;;;;;19.30;13.60;;;18.40;99.90;;;;;;5038713;28;20052;-55
2023/06/22 06:08:04;;;;;;;15.68;13.07;;;18.40;99.90;;;;;;5037471;28;20043;-61
2023/06/22 06:10:31;;;;;;;22.48;14.40;;;18.50;99.90;;;;;;5043044;28;20053;-61
2023/06/22 06:12:57;;;;;;;19.52;13.32;;;18.50;99.90;;;;;;5039385;28;20043;-63
2023/06/22 06:15:23;;;;;;;;;;;18.60;99.90;;;;;;5041943;28;20044;-62
2023/06/22 06:17:50;;;;;;;20.48;13.30;;;18.60;99.90;;;;;;5039602;28;19924;-61
2023/06/22 06:20:19;;;;;;;16.98;13.25;;;18.60;99.90;;;;;;5042685;28;20493;-60
2023/06/22 06:22:46;;;;;;;16.30;13.05;;;18.70;99.90;;;;;;5037116;28;20041;-60
2023/06/22 06:25:15;;;;;;;18.90;14.07;;;18.70;99.90;;;;;;5041899;28;20420;-61
2023/06/22 06:27:45;;;;;;;17.60;13.45;;;18.70;99.90;;;;;;5037327;28;20056;-57
2023/06/22 06:30:12;;;;;;;18.70;14.73;;;18.70;99.90;;;;;;5041831;28;20142;-61
2023/06/22 06:32:39;;;;;;;18.98;14.27;;;18.70;99.90;;;;;;5033641;28;20049;-61
2023/06/22 06:35:10;;;;;;;15.90;13.05;;;18.80;99.90;;;;;;5041620;28;20037;-61
2023/06/22 06:37:42;;;;;;;19.40;14.00;;;18.90;99.90;;;;;;5036367;28;20131;-59
2023/06/22 06:40:12;;;;;;;20.60;16.42;;;19.20;99.90;;;;;;5043308;28;20041;-62
2023/06/22 06:42:44;;;;;;;19.48;14.43;;;19.20;99.90;;;;;;5037696;28;20069;-61
2023/06/22 06:45:11;;;;;;;20.05;15.25;;;19.20;99.90;;;;;;5038767;28;20084;-60
2023/06/22 06:47:36;;;;;;;20.75;16.42;;;19.40;99.90;;;;;;5037307;28;20080;-61
2023/06/22 06:50:03;;;;;;;19.63;14.70;;;19.50;99.90;;;;;;5038949;28;20118;-59
2023/06/22 06:52:29;;;;;;;17.63;14.57;;;19.60;99.90;;;;;;5032758;28;20052;-61
2023/06/22 06:54:55;;;;;;;20.52;14.90;;;19.70;99.90;;;;;;5037037;28;20033;-60
2023/06/22 06:57:22;;;;;;;17.30;14.18;;;19.80;99.90;;;;;;5029879;28;20083;-61
2023/06/22 06:59:48;;;;;;;17.15;13.45;;;20.20;99.90;;;;;;5042792;28;20041;-58
2023/06/22 07:02:15;;;;;;;17.20;14.55;;;20.50;99.90;;;;;;5035765;28;20042;-60
2023/06/22 07:04:41;;;;;;;17.23;14.52;;;20.60;99.90;;;;;;5040200;28;20045;-61
2023/06/22 07:07:07;;;;;;;13.82;11.60;;;20.60;99.90;;;;;;5038553;28;20371;-59
2023/06/22 07:09:32;;;;;;;16.48;13.40;;;20.60;99.90;;;;;;5041707;28;20062;-58
2023/06/22 07:11:58;;;;;;;16.80;13.13;;;20.70;99.90;;;;;;5037986;28;20186;-61
2023/06/22 07:14:24;;;;;;;12.10;9.93;;;20.60;99.90;;;;;;5039621;28;20138;-53
2023/06/22 07:16:49;;;;;;;14.80;11.65;;;20.60;99.90;;;;;;5031922;28;20120;-64
2023/06/22 07:19:15;;;;;;;13.88;11.48;;;20.50;99.90;;;;;;5036573;28;20029;-58
2023/06/22 07:21:40;;;;;;;15.20;12.60;;;20.60;99.90;;;;;;5039406;28;20117;-57
2023/06/22 07:24:06;;;;;;;15.98;12.63;;;20.80;99.90;;;;;;5037552;28;20041;-61
2023/06/22 07:26:33;;;;;;;14.13;10.68;;;21.30;99.90;;;;;;5040075;28;20080;-61
2023/06/22 07:28:58;;;;;;;16.63;13.20;;;21.60;99.90;;;;;;5042801;28;20041;-58
2023/06/22 07:31:25;;;;;;;16.77;12.13;;;22.00;99.90;;;;;;5042620;28;20570;-58
2023/06/22 07:33:51;;;;;;;13.00;11.18;;;21.90;99.90;;;;;;5041279;28;20037;-56
2023/06/22 07:36:17;;;;;;;14.30;10.95;;;21.70;99.90;;;;;;5042644;28;20051;-60
2023/06/22 07:38:43;;;;;;;14.15;11.25;;;21.80;99.90;;;;;;5041452;28;20036;-53
2023/06/22 07:41:08;;;;;;;14.48;11.02;;;21.80;99.90;;;;;;5044354;28;20106;-62
2023/06/22 07:43:36;;;;;;;14.80;11.63;;;21.70;99.90;;;;;;5041006;28;20052;-60
2023/06/22 07:46:03;;;;;;;13.70;11.20;;;21.60;99.90;;;;;;5042439;28;20049;-60
2023/06/22 07:48:28;;;;;;;14.55;12.02;;;21.40;99.90;;;;;;5040354;28;20041;-62
2023/06/22 07:50:54;;;;;;;13.43;10.70;;;21.50;99.90;;;;;;5036621;28;20379;-59
2023/06/22 07:53:21;;;;;;;12.82;9.75;;;21.50;99.90;;;;;;5036483;28;20052;-60
2023/06/22 07:55:47;;;;;;;15.20;11.98;;;21.60;99.90;;;;;;5042862;28;20504;-59
2023/06/22 07:58:13;;;;;;;13.93;11.35;;;21.70;99.90;;;;;;5034944;28;20045;-59
2023/06/22 08:00:38;;;;;;;13.68;10.68;;;21.60;99.90;;;;;;5040142;28;20475;-60
2023/06/22 08:03:05;;;;;;;15.35;11.40;;;21.60;99.90;;;;;;5042149;28;20094;-61
2023/06/22 08:05:30;;;;;;;13.13;11.13;;;21.70;99.90;;;;;;5041433;28;20569;-58
2023/06/22 08:07:56;;;;;;;15.38;10.45;;;21.80;99.90;;;;;;5040865;28;20163;-63
2023/06/22 08:10:22;;;;;;;13.68;9.10;;;22.00;99.90;;;;;;5044906;28;20072;-61
2023/06/22 08:12:48;;;;;;;12.63;9.75;;;22.40;99.90;;;;;;5040673;28;20101;-61
2023/06/22 08:15:13;;;;;;;13.98;10.63;;;22.60;99.90;;;;;;5043336;28;20064;-60
2023/06/22 08:17:39;;;;;;;13.20;10.45;;;22.50;99.90;;;;;;5037140;28;20600;-61
2023/06/22 08:20:09;;;;;;;11.18;9.70;;;22.50;99.90;;;;;;5046848;28;20041;-56
2023/06/22 08:22:36;;;;;;;17.38;9.93;;;22.40;99.90;;;;;;5037943;28;20103;-61
2023/06/22 08:25:03;;;;;;;11.43;8.90;;;22.30;99.90;;;;;;5043656;28;20044;-59
2023/06/22 08:27:31;;;;;;;11.18;8.23;;;22.40;99.90;;;;;;5038871;28;20223;-62
2023/06/22 08:29:58;;;;;;;12.82;9.45;;;22.60;99.90;;;;;;5045301;28;20040;-61
2023/06/22 08:32:26;;;;;;;11.60;9.35;;;22.80;99.90;;;;;;5036632;28;20084;-60
2023/06/22 08:34:56;;;;;;;12.38;9.77;;;22.80;99.90;;;;;;5042873;28;20044;-58
2023/06/22 08:37:30;;;;;;;11.55;9.30;;;23.00;99.90;;;;;;5039570;28;20068;-60
2023/06/22 08:39:56;;;;;;;13.82;10.52;;;23.00;99.90;;;;;;5037233;28;20045;-61
2023/06/22 08:42:23;;;;;;;13.85;10.27;;;23.00;99.90;;;;;;5038031;28;20095;-60
2023/06/22 08:44:48;;;;;;;13.57;10.98;;;22.80;99.90;;;;;;5043227;28;20396;-62
2023/06/22 08:47:14;;;;;;;16.63;12.57;;;22.90;99.90;;;;;;5037059;28;20044;-59
2023/06/22 08:49:39;;;;;;;19.63;12.85;;;22.90;99.90;;;;;;5034312;28;20124;-58
2023/06/22 08:52:06;;;;;;;14.20;11.00;;;22.90;99.90;;;;;;5040235;28;20057;-60
2023/06/22 08:54:34;;;;;;;15.77;10.70;;;22.80;99.90;;;;;;5042875;28;20049;-59
2023/06/22 08:57:00;;;;;;;16.17;11.50;;;22.80;99.90;;;;;;5041505;28;20124;-60
2023/06/22 08:59:26;;;;;;;13.23;11.35;;;22.80;99.90;;;;;;5042376;28;20312;-58
2023/06/22 09:01:51;;;;;;;13.95;9.85;;;22.70;99.90;;;;;;5040548;28;20045;-61
2023/06/22 09:04:17;;;;;;;15.43;10.77;;;22.80;99.90;;;;;;5044429;28;20037;-61
2023/06/22 09:06:46;;;;;;;11.60;8.90;;;22.80;99.90;;;;;;5042276;28;20033;-60
2023/06/22 09:09:16;;;;;;;13.63;11.02;;;22.90;99.90;;;;;;5044844;28;20040;-61
2023/06/22 09:11:42;;;;;;;14.02;10.02;;;22.80;99.90;;;;;;5040168;28;20112;-61
2023/06/22 09:14:08;;;;;;;13.70;10.38;;;22.80;99.90;;;;;;5042232;28;20048;-59
2023/06/22 09:16:34;;;;;;;12.52;10.35;;;22.60;99.90;;;;;;5040256;28;20067;-58
2023/06/22 09:18:59;;;;;;;14.32;10.40;;;22.70;99.90;;;;;;5042281;28;20037;-62
2023/06/22 09:21:25;;;;;;;12.43;9.77;;;22.60;99.90;;;;;;5040398;28;20045;-60
2023/06/22 09:23:51;;;;;;;11.57;9.10;;;22.80;99.90;;;;;;5040585;28;20040;-62
2023/06/22 09:26:20;;;;;;;14.32;10.65;;;23.00;99.90;;;;;;5042008;28;20095;-59
2023/06/22 09:28:46;;;;;;;13.65;9.15;;;23.20;99.90;;;;;;5040192;28;20602;-60
2023/06/22 09:31:12;;;;;;;11.90;9.73;;;23.30;99.90;;;;;;5041154;28;20048;-60
2023/06/22 09:33:39;;;;;;;16.13;9.43;;;23.40;99.90;;;;;;5038579;28;20032;-61
2023/06/22 09:36:07;;;;;;;10.50;9.02;;;23.30;99.90;;;;;;5032568;28;20481;-60
2023/06/22 09:38:35;;;;;;;12.38;9.52;;;23.20;99.90;;;;;;5037516;28;20045;-58
2023/06/22 09:41:01;;;;;;;11.65;8.75;;;23.30;99.90;;;;;;5043943;28;20033;-56
2023/06/22 09:43:27;;;;;;;14.68;9.38;;;23.30;99.90;;;;;;5039026;28;20115;-56
2023/06/22 09:45:53;;;;;;;13.80;9.63;;;23.30;99.90;;;;;;5029820;28;20049;-60
2023/06/22 09:48:18;;;;;;;14.52;8.98;;;23.20;99.90;;;;;;5027862;28;20413;-60
2023/06/22 09:50:44;;;;;;;11.43;8.75;;;23.20;99.90;;;;;;5035751;28;20442;-61
2023/06/22 09:53:10;;;;;;;12.27;9.57;;;23.30;99.90;;;;;;5037335;28;20060;-61
2023/06/22 09:55:35;;;;;;;10.95;8.70;;;23.40;99.90;;;;;;5036443;28;20036;-61
2023/06/22 09:58:01;;;;;;;13.18;9.00;;;23.60;99.90;;;;;;5031602;28;20090;-60
2023/06/22 10:00:26;;;;;;;18.77;9.52;;;23.80;99.90;;;;;;5035636;28;20036;-58
2023/06/22 10:02:52;;;;;;;9.77;7.95;;;23.90;99.90;;;;;;5030426;28;20049;-59
2023/06/22 10:05:18;;;;;;;12.55;8.60;;;23.90;99.90;;;;;;5032059;28;20037;-61
2023/06/22 10:07:44;;;;;;;11.48;8.45;;;24.00;99.90;;;;;;5027468;28;23468;-64
2023/06/22 10:10:11;;;;;;;9.88;8.15;;;23.90;99.90;;;;;;5043009;28;20044;-60
2023/06/22 10:12:40;;;;;;;13.60;8.40;;;23.90;99.90;;;;;;5035876;28;20038;-62
2023/06/22 10:15:06;;;;;;;11.45;8.95;;;24.10;99.90;;;;;;5036091;28;20037;-59
2023/06/22 10:17:32;;;;;;;11.63;8.73;;;24.00;99.90;;;;;;5033664;28;20087;-61
2023/06/22 10:19:57;;;;;;;11.18;8.45;;;23.90;99.90;;;;;;5035401;28;20073;-60
2023/06/22 10:22:23;;;;;;;9.77;8.07;;;23.90;99.90;;;;;;5034411;28;20037;-60
2023/06/22 10:24:48;;;;;;;10.40;8.50;;;23.90;99.90;;;;;;5042692;28;20033;-62
2023/06/22 10:27:14;;;;;;;11.27;8.30;;;24.00;99.90;;;;;;5040041;28;20056;-59
2023/06/22 10:29:41;;;;;;;14.45;9.70;;;24.20;99.90;;;;;;5042210;28;20072;-60
2023/06/22 10:32:07;;;;;;;10.65;8.13;;;24.00;99.90;;;;;;5038665;28;20549;-60
2023/06/22 10:34:33;;;;;;;11.65;8.27;;;23.90;99.90;;;;;;5039702;28;20126;-59
2023/06/22 10:36:59;;;;;;;16.90;9.18;;;23.90;99.90;;;;;;5038663;28;20045;-61
2023/06/22 10:39:25;;;;;;;11.15;7.85;;;24.00;99.90;;;;;;5041166;28;20029;-61
2023/06/22 10:41:51;;;;;;;14.90;8.32;;;24.20;99.90;;;;;;5040006;28;20033;-58
2023/06/22 10:44:17;;;;;;;18.27;9.48;;;24.10;99.90;;;;;;5041068;28;20093;-60
2023/06/22 10:46:43;;;;;;;10.60;8.77;;;24.00;99.90;;;;;;5039532;28;20120;-62
2023/06/22 10:49:08;;;;;;;10.15;7.82;;;23.90;99.90;;;;;;5039397;28;20123;-62
2023/06/22 10:51:35;;;;;;;12.15;8.43;;;23.90;99.90;;;;;;5040433;28;20040;-62
2023/06/22 10:54:01;;;;;;;14.25;8.38;;;23.90;99.90;;;;;;5038176;28;20033;-60
2023/06/22 10:56:26;;;;;;;16.48;9.88;;;24.10;99.90;;;;;;5039416;28;20047;-61
2023/06/22 10:58:52;;;;;;;10.45;9.20;;;24.00;99.90;;;;;;5039309;28;20123;-58
2023/06/22 11:01:18;;;;;;;14.85;10.60;;;24.00;99.90;;;;;;5032551;28;20029;-61
2023/06/22 11:03:43;;;;;;;12.52;9.50;;;24.10;99.90;;;;;;5038427;28;20237;-61
2023/06/22 11:06:09;;;;;;;12.02;9.07;;;24.20;99.90;;;;;;5038813;28;20091;-58
2023/06/22 11:08:34;;;;;;;15.55;11.10;;;24.10;99.90;;;;;;5036607;28;20080;-62
2023/06/22 11:11:00;;;;;;;17.85;11.00;;;23.90;99.90;;;;;;5038642;28;20486;-58
2023/06/22 11:13:25;;;;;;;15.10;10.13;;;23.90;99.90;;;;;;5036098;28;20041;-61
2023/06/22 11:15:51;;;;;;;12.63;9.70;;;23.90;99.90;;;;;;5039061;28;20037;-62
2023/06/22 11:18:17;;;;;;;13.10;10.38;;;23.90;99.90;;;;;;5036798;28;20741;-61
2023/06/22 11:20:42;;;;;;;16.17;10.10;;;24.00;99.90;;;;;;5040364;28;20041;-61
2023/06/22 11:23:08;;;;;;;15.93;10.48;;;24.00;99.90;;;;;;5037950;28;20120;-62
2023/06/22 11:25:38;;;;;;;14.05;10.38;;;24.00;99.90;;;;;;5039150;28;20044;-61
2023/06/22 11:28:03;;;;;;;17.52;11.70;;;24.00;99.90;;;;;;5037358;28;20049;-60
2023/06/22 11:30:30;;;;;;;19.05;10.40;;;23.90;99.90;;;;;;5040139;28;20989;-61
2023/06/22 11:32:57;;;;;;;13.88;10.88;;;23.90;99.90;;;;;;5038011;28;20594;-61
2023/06/22 11:35:23;;;;;;;14.52;10.68;;;23.80;99.90;;;;;;5041344;28;20207;-62
2023/06/22 11:37:49;;;;;;;19.50;11.98;;;23.80;99.90;;;;;;5036981;28;20059;-62
2023/06/22 11:40:14;;;;;;;13.35;10.52;;;23.60;99.90;;;;;;5041900;28;20134;-62
2023/06/22 11:42:40;;;;;;;13.00;10.20;;;23.60;99.90;;;;;;5037748;28;20048;-61
2023/06/22 11:45:07;;;;;;;13.85;10.75;;;23.60;99.90;;;;;;5044411;28;20476;-61
2023/06/22 11:47:33;;;;;;;14.30;11.52;;;23.50;99.90;;;;;;5038159;28;20048;-60
2023/06/22 11:49:58;;;;;;;19.55;11.10;;;23.40;99.90;;;;;;5043736;28;20087;-61
2023/06/22 11:52:24;;;;;;;23.98;11.68;;;23.30;99.90;;;;;;5036788;28;20045;-60
2023/06/22 11:54:49;;;;;;;18.73;11.73;;;23.20;99.90;;;;;;5040852;28;20037;-61
2023/06/22 11:57:15;;;;;;;14.45;11.00;;;23.20;99.90;;;;;;5036968;28;20087;-63
2023/06/22 11:59:41;;;;;;;17.27;12.18;;;23.10;99.90;;;;;;5042683;28;20459;-62
2023/06/22 12:02:07;;;;;;;12.85;10.35;;;23.10;99.90;;;;;;5036743;28;20029;-62
2023/06/22 12:04:33;;;;;;;15.88;11.35;;;23.10;99.90;;;;;;5038798;28;20091;-59
2023/06/22 12:06:58;;;;;;;16.50;11.68;;;23.10;99.90;;;;;;5038098;28;20049;-61
2023/06/22 12:09:24;;;;;;;16.00;11.60;;;23.00;99.90;;;;;;5038381;28;20091;-60
2023/06/22 12:11:49;;;;;;;15.32;11.25;;;22.90;99.90;;;;;;5037263;28;20068;-61
2023/06/22 12:14:15;;;;;;;14.82;10.10;;;22.80;99.90;;;;;;5037480;28;20297;-60
2023/06/22 12:16:41;;;;;;;16.55;11.80;;;22.70;99.90;;;;;;5036360;28;20040;-59
2023/06/22 12:19:06;;;;;;;14.40;11.95;;;22.70;99.90;;;;;;5041364;28;20076;-61
2023/06/22 12:21:32;;;;;;;20.83;12.05;;;22.60;99.90;;;;;;5059206;28;20459;-61
2023/06/22 12:23:57;;;;;;;17.55;12.75;;;22.40;99.90;;;;;;5037094;28;20038;-62
2023/06/22 12:26:23;;;;;;;22.23;12.90;;;22.40;99.90;;;;;;5036631;28;20041;-59
2023/06/22 12:28:49;;;;;;;18.92;12.18;;;22.30;99.90;;;;;;5040852;28;20142;-61
2023/06/22 12:31:14;;;;;;;14.50;12.27;;;22.20;99.90;;;;;;5036658;28;20043;-61
2023/06/22 12:33:40;;;;;;;23.65;14.60;;;22.30;99.90;;;;;;5035203;28;20077;-60
2023/06/22 12:36:06;;;;;;;16.73;12.07;;;22.20;99.90;;;;;;5041969;28;20052;-59
2023/06/22 12:38:31;;;;;;;16.88;13.45;;;22.20;99.90;;;;;;5043275;28;20122;-63